sensor_id;sensor_type;location;lat;lon;timestamp;pressure;altitude;pressure_sealevel;temperature;humidity
64388;BME280;50709;52.648;4.764;2023-10-08T00:01:08;102296.78;;;22.23;64.76
64388;BME280;50709;52.648;4.764;2023-10-08T00:03:36;102299.66;;;22.15;65.00
64388;BME280;50709;52.648;4.764;2023-10-08T00:06:04;102285.81;;;21.99;65.16
64388;BME280;50709;52.648;4.764;2023-10-08T00:08:39;102290.91;;;22.10;65.01
64388;BME280;50709;52.648;4.764;2023-10-08T00:11:24;102281.06;;;22.12;65.38
64388;BME280;50709;52.648;4.764;2023-10-08T00:13:50;102290.06;;;22.06;65.17
64388;BME280;50709;52.648;4.764;2023-10-08T00:16:22;102255.00;;;21.89;65.45
64388;BME280;50709;52.648;4.764;2023-10-08T00:18:48;102280.50;;;21.99;65.21
64388;BME280;50709;52.648;4.764;2023-10-08T00:21:21;102273.22;;;22.07;65.31
64388;BME280;50709;52.648;4.764;2023-10-08T00:23:53;102273.56;;;21.92;65.81
64388;BME280;50709;52.648;4.764;2023-10-08T00:26:23;102267.44;;;21.88;65.70
64388;BME280;50709;52.648;4.764;2023-10-08T00:28:54;102281.53;;;21.92;65.83
64388;BME280;50709;52.648;4.764;2023-10-08T00:31:23;102279.00;;;21.87;66.14
64388;BME280;50709;52.648;4.764;2023-10-08T00:33:59;102272.09;;;21.78;66.10
64388;BME280;50709;52.648;4.764;2023-10-08T00:36:47;102287.91;;;21.84;66.01
64388;BME280;50709;52.648;4.764;2023-10-08T00:39:15;102301.09;;;21.91;66.41
64388;BME280;50709;52.648;4.764;2023-10-08T00:41:51;102294.09;;;21.87;66.26
64388;BME280;50709;52.648;4.764;2023-10-08T00:44:24;102304.72;;;21.85;66.26
64388;BME280;50709;52.648;4.764;2023-10-08T00:46:55;102317.94;;;21.90;66.38
64388;BME280;50709;52.648;4.764;2023-10-08T00:49:25;102311.75;;;21.89;66.04
64388;BME280;50709;52.648;4.764;2023-10-08T00:52:01;102289.66;;;21.86;66.04
64388;BME280;50709;52.648;4.764;2023-10-08T00:54:38;102309.19;;;21.84;66.44
64388;BME280;50709;52.648;4.764;2023-10-08T00:57:28;102312.53;;;21.93;66.04
64388;BME280;50709;52.648;4.764;2023-10-08T00:59:55;102319.69;;;21.91;66.03
64388;BME280;50709;52.648;4.764;2023-10-08T01:02:30;102312.50;;;21.94;65.87
64388;BME280;50709;52.648;4.764;2023-10-08T01:05:12;102328.50;;;21.93;66.13
64388;BME280;50709;52.648;4.764;2023-10-08T01:07:40;102322.53;;;21.83;65.62
64388;BME280;50709;52.648;4.764;2023-10-08T01:10:10;102341.13;;;21.83;65.83
64388;BME280;50709;52.648;4.764;2023-10-08T01:12:38;102365.69;;;21.96;65.76
64388;BME280;50709;52.648;4.764;2023-10-08T01:15:24;102361.28;;;21.95;65.68
64388;BME280;50709;52.648;4.764;2023-10-08T01:17:55;102342.19;;;21.76;66.33
64388;BME280;50709;52.648;4.764;2023-10-08T01:20:29;102362.28;;;21.88;66.26
64388;BME280;50709;52.648;4.764;2023-10-08T01:23:10;102350.13;;;21.77;66.21
64388;BME280;50709;52.648;4.764;2023-10-08T01:25:40;102388.28;;;21.75;66.51
64388;BME280;50709;52.648;4.764;2023-10-08T01:28:07;102389.81;;;21.85;66.33
64388;BME280;50709;52.648;4.764;2023-10-08T01:31:07;102403.88;;;21.92;65.76
64388;BME280;50709;52.648;4.764;2023-10-08T01:33:35;102399.97;;;21.66;66.16
64388;BME280;50709;52.648;4.764;2023-10-08T01:36:08;102412.09;;;21.79;65.68
64388;BME280;50709;52.648;4.764;2023-10-08T01:38:39;102423.72;;;21.75;65.73
64388;BME280;50709;52.648;4.764;2023-10-08T01:41:24;102424.63;;;21.74;64.87
64388;BME280;50709;52.648;4.764;2023-10-08T01:43:58;102409.88;;;21.58;65.46
64388;BME280;50709;52.648;4.764;2023-10-08T01:48:52;102389.69;;;21.47;65.67
64388;BME280;50709;52.648;4.764;2023-10-08T01:51:29;102381.94;;;21.33;65.75
64388;BME280;50709;52.648;4.764;2023-10-08T01:54:10;102381.28;;;21.22;65.39
64388;BME280;50709;52.648;4.764;2023-10-08T01:56:56;102413.81;;;21.37;65.83
64388;BME280;50709;52.648;4.764;2023-10-08T01:59:24;102407.66;;;21.33;66.08
64388;BME280;50709;52.648;4.764;2023-10-08T02:01:50;102419.16;;;21.33;65.86
64388;BME280;50709;52.648;4.764;2023-10-08T02:04:20;102442.69;;;21.04;66.14
64388;BME280;50709;52.648;4.764;2023-10-08T02:06:46;102436.13;;;20.00;68.38
64388;BME280;50709;52.648;4.764;2023-10-08T02:09:12;102428.28;;;19.94;69.50
64388;BME280;50709;52.648;4.764;2023-10-08T02:14:08;102386.41;;;20.17;68.80
64388;BME280;50709;52.648;4.764;2023-10-08T02:16:34;102375.38;;;19.78;70.09
64388;BME280;50709;52.648;4.764;2023-10-08T02:19:03;102405.63;;;20.37;68.60
64388;BME280;50709;52.648;4.764;2023-10-08T02:21:29;102427.88;;;20.26;67.67
64388;BME280;50709;52.648;4.764;2023-10-08T02:23:54;102414.13;;;19.93;68.11
64388;BME280;50709;52.648;4.764;2023-10-08T02:26:21;102380.69;;;19.80;68.57
64388;BME280;50709;52.648;4.764;2023-10-08T02:28:50;102383.50;;;19.66;70.28
64388;BME280;50709;52.648;4.764;2023-10-08T02:31:16;102389.06;;;19.41;70.30
64388;BME280;50709;52.648;4.764;2023-10-08T02:33:44;102438.13;;;19.79;69.40
64388;BME280;50709;52.648;4.764;2023-10-08T02:36:10;102430.00;;;19.98;68.87
64388;BME280;50709;52.648;4.764;2023-10-08T02:38:35;102443.16;;;20.07;68.92
64388;BME280;50709;52.648;4.764;2023-10-08T02:41:03;102422.22;;;19.84;68.43
64388;BME280;50709;52.648;4.764;2023-10-08T02:43:32;102429.22;;;18.90;69.41
64388;BME280;50709;52.648;4.764;2023-10-08T02:46:00;102414.22;;;18.86;70.49
64388;BME280;50709;52.648;4.764;2023-10-08T02:48:27;102423.53;;;19.40;70.20
64388;BME280;50709;52.648;4.764;2023-10-08T02:50:52;102411.19;;;19.37;69.62
64388;BME280;50709;52.648;4.764;2023-10-08T02:53:19;102424.50;;;19.29;68.32
64388;BME280;50709;52.648;4.764;2023-10-08T02:55:48;102411.00;;;19.56;70.08
64388;BME280;50709;52.648;4.764;2023-10-08T02:58:15;102425.22;;;19.45;68.69
64388;BME280;50709;52.648;4.764;2023-10-08T03:00:45;102445.34;;;19.63;68.56
64388;BME280;50709;52.648;4.764;2023-10-08T03:03:13;102466.75;;;19.43;67.32
64388;BME280;50709;52.648;4.764;2023-10-08T03:05:45;102448.13;;;19.51;68.74
64388;BME280;50709;52.648;4.764;2023-10-08T03:08:15;102447.69;;;18.99;68.87
64388;BME280;50709;52.648;4.764;2023-10-08T03:10:48;102452.94;;;19.04;67.86
64388;BME280;50709;52.648;4.764;2023-10-08T03:13:28;102472.19;;;19.28;68.77
64388;BME280;50709;52.648;4.764;2023-10-08T03:15:53;102494.88;;;19.60;68.22
64388;BME280;50709;52.648;4.764;2023-10-08T03:18:28;102502.19;;;19.30;68.40
64388;BME280;50709;52.648;4.764;2023-10-08T03:21:05;102469.56;;;19.25;67.63
64388;BME280;50709;52.648;4.764;2023-10-08T03:23:31;102480.31;;;19.06;68.15
64388;BME280;50709;52.648;4.764;2023-10-08T03:26:03;102502.22;;;19.27;69.15
64388;BME280;50709;52.648;4.764;2023-10-08T03:28:56;102541.34;;;18.74;69.14
64388;BME280;50709;52.648;4.764;2023-10-08T03:31:24;102525.22;;;19.20;68.61
64388;BME280;50709;52.648;4.764;2023-10-08T03:34:08;102551.66;;;19.28;68.58
64388;BME280;50709;52.648;4.764;2023-10-08T03:36:54;102521.84;;;18.98;68.09
64388;BME280;50709;52.648;4.764;2023-10-08T03:39:31;102543.94;;;18.92;68.11
64388;BME280;50709;52.648;4.764;2023-10-08T03:42:23;102527.25;;;18.70;67.49
64388;BME280;50709;52.648;4.764;2023-10-08T03:44:50;102527.19;;;18.82;67.55
64388;BME280;50709;52.648;4.764;2023-10-08T03:47:19;102516.63;;;18.78;68.79
64388;BME280;50709;52.648;4.764;2023-10-08T03:50:07;102520.97;;;18.96;67.95
64388;BME280;50709;52.648;4.764;2023-10-08T03:52:35;102482.22;;;18.79;68.23
64388;BME280;50709;52.648;4.764;2023-10-08T03:55:07;102494.66;;;18.66;68.04
64388;BME280;50709;52.648;4.764;2023-10-08T03:58:04;102472.72;;;18.41;68.83
64388;BME280;50709;52.648;4.764;2023-10-08T04:00:51;102467.19;;;18.83;68.18
64388;BME280;50709;52.648;4.764;2023-10-08T04:03:36;102471.81;;;18.47;67.34
64388;BME280;50709;52.648;4.764;2023-10-08T04:06:27;102479.72;;;18.50;68.14
64388;BME280;50709;52.648;4.764;2023-10-08T04:09:20;102481.47;;;18.51;67.82
64388;BME280;50709;52.648;4.764;2023-10-08T04:11:51;102519.50;;;18.31;68.47
64388;BME280;50709;52.648;4.764;2023-10-08T04:14:22;102514.22;;;18.24;68.57
64388;BME280;50709;52.648;4.764;2023-10-08T04:16:49;102535.88;;;19.09;67.99
64388;BME280;50709;52.648;4.764;2023-10-08T04:19:20;102543.69;;;19.29;66.97
64388;BME280;50709;52.648;4.764;2023-10-08T04:21:48;102551.63;;;19.29;66.17
64388;BME280;50709;52.648;4.764;2023-10-08T04:24:28;102561.34;;;19.30;66.58
64388;BME280;50709;52.648;4.764;2023-10-08T04:26:57;102546.28;;;19.37;65.70
64388;BME280;50709;52.648;4.764;2023-10-08T04:29:25;102565.03;;;19.02;67.01
64388;BME280;50709;52.648;4.764;2023-10-08T04:31:53;102550.84;;;19.15;67.46
64388;BME280;50709;52.648;4.764;2023-10-08T04:34:34;102546.53;;;19.03;67.22
64388;BME280;50709;52.648;4.764;2023-10-08T04:37:00;102541.50;;;18.41;67.91
64388;BME280;50709;52.648;4.764;2023-10-08T04:39:37;102540.41;;;18.95;67.92
64388;BME280;50709;52.648;4.764;2023-10-08T04:42:06;102552.00;;;18.57;66.90
64388;BME280;50709;52.648;4.764;2023-10-08T04:44:37;102542.38;;;18.40;67.84
64388;BME280;50709;52.648;4.764;2023-10-08T04:47:12;102561.78;;;18.42;67.25
64388;BME280;50709;52.648;4.764;2023-10-08T04:49:58;102576.59;;;18.90;68.36
64388;BME280;50709;52.648;4.764;2023-10-08T04:52:43;102567.66;;;19.09;67.23
64388;BME280;50709;52.648;4.764;2023-10-08T04:55:43;102558.28;;;18.26;67.07
64388;BME280;50709;52.648;4.764;2023-10-08T04:58:14;102553.84;;;18.35;69.09
64388;BME280;50709;52.648;4.764;2023-10-08T05:00:46;102563.50;;;18.43;68.01
64388;BME280;50709;52.648;4.764;2023-10-08T05:03:25;102574.00;;;18.71;68.00
64388;BME280;50709;52.648;4.764;2023-10-08T05:06:10;102575.75;;;18.75;67.93
64388;BME280;50709;52.648;4.764;2023-10-08T05:08:46;102597.75;;;18.83;67.71
64388;BME280;50709;52.648;4.764;2023-10-08T05:11:24;102592.34;;;19.14;67.40
64388;BME280;50709;52.648;4.764;2023-10-08T05:14:01;102615.25;;;19.22;66.82
64388;BME280;50709;52.648;4.764;2023-10-08T05:16:41;102596.00;;;18.89;66.51
64388;BME280;50709;52.648;4.764;2023-10-08T05:19:26;102592.44;;;18.96;67.60
64388;BME280;50709;52.648;4.764;2023-10-08T05:22:16;102569.53;;;18.82;67.48
64388;BME280;50709;52.648;4.764;2023-10-08T05:25:04;102575.72;;;18.80;67.21
64388;BME280;50709;52.648;4.764;2023-10-08T05:27:45;102573.97;;;18.76;66.88
64388;BME280;50709;52.648;4.764;2023-10-08T05:30:18;102546.66;;;18.74;67.54
64388;BME280;50709;52.648;4.764;2023-10-08T05:33:09;102559.06;;;18.64;66.43
64388;BME280;50709;52.648;4.764;2023-10-08T05:35:54;102570.38;;;18.95;67.54
64388;BME280;50709;52.648;4.764;2023-10-08T05:38:24;102580.94;;;19.00;66.55
64388;BME280;50709;52.648;4.764;2023-10-08T05:40:58;102592.31;;;19.19;66.46
64388;BME280;50709;52.648;4.764;2023-10-08T05:43:42;102599.44;;;19.09;67.08
64388;BME280;50709;52.648;4.764;2023-10-08T05:46:12;102577.63;;;18.41;65.11
64388;BME280;50709;52.648;4.764;2023-10-08T05:49:05;102594.31;;;18.58;66.75
64388;BME280;50709;52.648;4.764;2023-10-08T05:51:51;102603.09;;;18.88;66.59
64388;BME280;50709;52.648;4.764;2023-10-08T05:54:36;102586.22;;;19.06;66.71
64388;BME280;50709;52.648;4.764;2023-10-08T05:57:12;102609.25;;;18.78;65.83
64388;BME280;50709;52.648;4.764;2023-10-08T05:59:43;102576.66;;;18.70;66.23
64388;BME280;50709;52.648;4.764;2023-10-08T06:02:42;102571.47;;;18.34;66.97
64388;BME280;50709;52.648;4.764;2023-10-08T06:05:10;102614.63;;;18.52;67.09
64388;BME280;50709;52.648;4.764;2023-10-08T06:07:45;102632.22;;;18.71;66.60
64388;BME280;50709;52.648;4.764;2023-10-08T06:10:36;102625.09;;;18.96;66.69
64388;BME280;50709;52.648;4.764;2023-10-08T06:13:02;102620.72;;;18.78;66.45
64388;BME280;50709;52.648;4.764;2023-10-08T06:15:56;102601.47;;;18.33;66.17
64388;BME280;50709;52.648;4.764;2023-10-08T06:18:26;102610.13;;;18.78;66.65
64388;BME280;50709;52.648;4.764;2023-10-08T06:20:56;102611.09;;;18.53;65.38
64388;BME280;50709;52.648;4.764;2023-10-08T06:23:45;102605.81;;;18.60;65.96
64388;BME280;50709;52.648;4.764;2023-10-08T06:26:12;102599.69;;;18.43;67.24
64388;BME280;50709;52.648;4.764;2023-10-08T06:28:44;102613.84;;;18.11;66.14
64388;BME280;50709;52.648;4.764;2023-10-08T06:31:14;102609.44;;;18.11;67.34
64388;BME280;50709;52.648;4.764;2023-10-08T06:33:44;102573.31;;;18.01;68.38
64388;BME280;50709;52.648;4.764;2023-10-08T06:36:29;102615.56;;;18.27;66.20
64388;BME280;50709;52.648;4.764;2023-10-08T06:39:23;102622.53;;;18.61;66.25
64388;BME280;50709;52.648;4.764;2023-10-08T06:41:54;102601.50;;;18.08;65.41
64388;BME280;50709;52.648;4.764;2023-10-08T06:44:20;102635.84;;;18.30;67.69
64388;BME280;50709;52.648;4.764;2023-10-08T06:46:47;102621.72;;;18.39;65.53
64388;BME280;50709;52.648;4.764;2023-10-08T06:49:14;102613.75;;;18.57;66.74
64388;BME280;50709;52.648;4.764;2023-10-08T06:51:41;102587.44;;;17.95;67.68
64388;BME280;50709;52.648;4.764;2023-10-08T06:54:09;102600.66;;;18.05;66.54
64388;BME280;50709;52.648;4.764;2023-10-08T06:56:42;102605.88;;;18.23;67.72
64388;BME280;50709;52.648;4.764;2023-10-08T06:59:17;102590.91;;;18.24;67.49
64388;BME280;50709;52.648;4.764;2023-10-08T07:01:44;102611.19;;;18.08;66.17
64388;BME280;50709;52.648;4.764;2023-10-08T07:04:17;102626.19;;;18.13;66.59
64388;BME280;50709;52.648;4.764;2023-10-08T07:06:49;102633.22;;;18.14;65.96
64388;BME280;50709;52.648;4.764;2023-10-08T07:09:36;102620.03;;;17.93;66.59
64388;BME280;50709;52.648;4.764;2023-10-08T07:12:04;102607.63;;;18.27;67.38
64388;BME280;50709;52.648;4.764;2023-10-08T07:15:10;102634.06;;;18.35;66.67
64388;BME280;50709;52.648;4.764;2023-10-08T07:17:57;102645.47;;;18.70;66.42
64388;BME280;50709;52.648;4.764;2023-10-08T07:20:34;102685.19;;;18.43;66.55
64388;BME280;50709;52.648;4.764;2023-10-08T07:23:28;102639.41;;;17.95;67.19
64388;BME280;50709;52.648;4.764;2023-10-08T07:26:04;102697.56;;;18.26;67.34
64388;BME280;50709;52.648;4.764;2023-10-08T07:28:42;102690.47;;;18.62;67.13
64388;BME280;50709;52.648;4.764;2023-10-08T07:31:19;102678.19;;;18.11;66.74
64388;BME280;50709;52.648;4.764;2023-10-08T07:33:59;102663.19;;;18.01;66.82
64388;BME280;50709;52.648;4.764;2023-10-08T07:36:47;102681.69;;;18.24;67.67
64388;BME280;50709;52.648;4.764;2023-10-08T07:39:16;102671.97;;;18.45;67.39
64388;BME280;50709;52.648;4.764;2023-10-08T07:41:49;102662.31;;;18.16;68.13
64388;BME280;50709;52.648;4.764;2023-10-08T07:44:16;102683.44;;;18.39;67.96
64388;BME280;50709;52.648;4.764;2023-10-08T07:47:06;102701.97;;;18.07;67.44
64388;BME280;50709;52.648;4.764;2023-10-08T07:49:43;102697.53;;;17.86;68.30
64388;BME280;50709;52.648;4.764;2023-10-08T07:52:49;102688.72;;;17.91;68.14
64388;BME280;50709;52.648;4.764;2023-10-08T07:55:35;102701.03;;;17.75;68.66
64388;BME280;50709;52.648;4.764;2023-10-08T07:58:01;102680.81;;;18.35;67.99
64388;BME280;50709;52.648;4.764;2023-10-08T08:00:34;102691.34;;;18.64;66.65
64388;BME280;50709;52.648;4.764;2023-10-08T08:03:18;102692.25;;;18.43;66.39
64388;BME280;50709;52.648;4.764;2023-10-08T08:06:07;102690.50;;;18.37;66.25
64388;BME280;50709;52.648;4.764;2023-10-08T08:08:38;102693.13;;;18.53;66.64
64388;BME280;50709;52.648;4.764;2023-10-08T08:11:10;102679.03;;;18.60;67.04
64388;BME280;50709;52.648;4.764;2023-10-08T08:13:44;102691.38;;;18.39;65.63
64388;BME280;50709;52.648;4.764;2023-10-08T08:16:13;102687.88;;;18.46;66.73
64388;BME280;50709;52.648;4.764;2023-10-08T08:19:09;102692.25;;;18.43;65.41
64388;BME280;50709;52.648;4.764;2023-10-08T08:21:39;102698.41;;;17.85;66.01
64388;BME280;50709;52.648;4.764;2023-10-08T08:24:13;102703.72;;;18.34;65.51
64388;BME280;50709;52.648;4.764;2023-10-08T08:26:55;102701.09;;;18.46;65.20
64388;BME280;50709;52.648;4.764;2023-10-08T08:29:35;102698.44;;;18.37;64.83
64388;BME280;50709;52.648;4.764;2023-10-08T08:32:10;102715.19;;;18.47;63.75
64388;BME280;50709;52.648;4.764;2023-10-08T08:34:43;102711.66;;;18.22;64.54
64388;BME280;50709;52.648;4.764;2023-10-08T08:37:11;102711.63;;;17.86;64.12
64388;BME280;50709;52.648;4.764;2023-10-08T08:39:37;102710.78;;;18.41;64.60
64388;BME280;50709;52.648;4.764;2023-10-08T08:42:03;102721.38;;;18.09;63.68
64388;BME280;50709;52.648;4.764;2023-10-08T08:44:37;102718.72;;;18.24;64.04
64388;BME280;50709;52.648;4.764;2023-10-08T08:47:14;102711.69;;;18.28;63.12
64388;BME280;50709;52.648;4.764;2023-10-08T08:49:43;102720.50;;;18.44;63.72
64388;BME280;50709;52.648;4.764;2023-10-08T08:52:10;102721.34;;;18.57;64.23
64388;BME280;50709;52.648;4.764;2023-10-08T08:54:36;102728.38;;;17.90;64.93
64388;BME280;50709;52.648;4.764;2023-10-08T08:57:03;102723.13;;;18.02;64.52
64388;BME280;50709;52.648;4.764;2023-10-08T08:59:44;102718.72;;;18.15;64.40
64388;BME280;50709;52.648;4.764;2023-10-08T09:02:14;102666.72;;;17.95;65.10
64388;BME280;50709;52.648;4.764;2023-10-08T09:04:41;102715.13;;;17.87;65.44
64388;BME280;50709;52.648;4.764;2023-10-08T09:07:07;102721.28;;;17.84;63.82
64388;BME280;50709;52.648;4.764;2023-10-08T09:09:34;102725.78;;;18.02;62.97
64388;BME280;50709;52.648;4.764;2023-10-08T09:12:10;102723.06;;;17.85;63.91
64388;BME280;50709;52.648;4.764;2023-10-08T09:14:37;102738.91;;;17.70;63.90
64388;BME280;50709;52.648;4.764;2023-10-08T09:17:06;102744.28;;;18.25;64.13
64388;BME280;50709;52.648;4.764;2023-10-08T09:19:38;102731.06;;;18.36;63.15
64388;BME280;50709;52.648;4.764;2023-10-08T09:22:06;102729.31;;;18.38;62.28
64388;BME280;50709;52.648;4.764;2023-10-08T09:24:37;102721.38;;;17.98;62.61
64388;BME280;50709;52.648;4.764;2023-10-08T09:27:07;102727.53;;;18.34;61.53
64388;BME280;50709;52.648;4.764;2023-10-08T09:29:36;102724.03;;;18.18;61.17
64388;BME280;50709;52.648;4.764;2023-10-08T09:32:05;102725.78;;;18.21;61.50
64388;BME280;50709;52.648;4.764;2023-10-08T09:34:55;102732.81;;;18.02;62.56
64388;BME280;50709;52.648;4.764;2023-10-08T09:37:21;102725.72;;;17.91;63.20
64388;BME280;50709;52.648;4.764;2023-10-08T09:39:49;102726.66;;;18.18;62.96
64388;BME280;50709;52.648;4.764;2023-10-08T09:42:16;102737.22;;;18.44;62.27
64388;BME280;50709;52.648;4.764;2023-10-08T09:44:44;102742.53;;;18.26;61.70
64388;BME280;50709;52.648;4.764;2023-10-08T09:47:09;102723.13;;;18.53;63.44
64388;BME280;50709;52.648;4.764;2023-10-08T09:49:47;102743.25;;;19.28;63.97
64388;BME280;50709;52.648;4.764;2023-10-08T09:52:17;102727.50;;;18.91;62.71
64388;BME280;50709;52.648;4.764;2023-10-08T09:54:53;102733.66;;;18.87;62.10
64388;BME280;50709;52.648;4.764;2023-10-08T09:57:20;102739.81;;;18.91;62.53
64388;BME280;50709;52.648;4.764;2023-10-08T09:59:47;102744.16;;;19.20;64.08
64388;BME280;50709;52.648;4.764;2023-10-08T10:02:14;102722.16;;;18.87;61.35
64388;BME280;50709;52.648;4.764;2023-10-08T10:04:43;102727.31;;;19.38;62.39
64388;BME280;50709;52.648;4.764;2023-10-08T10:07:11;102736.13;;;19.43;62.44
64388;BME280;50709;52.648;4.764;2023-10-08T10:09:43;102740.66;;;19.13;60.69
64388;BME280;50709;52.648;4.764;2023-10-08T10:12:36;102732.84;;;18.37;59.10
64388;BME280;50709;52.648;4.764;2023-10-08T10:15:23;102729.22;;;18.88;59.76
64388;BME280;50709;52.648;4.764;2023-10-08T10:18:27;102725.50;;;19.49;59.77
64388;BME280;50709;52.648;4.764;2023-10-08T10:21:26;102723.03;;;18.84;58.28
64388;BME280;50709;52.648;4.764;2023-10-08T10:23:55;102727.34;;;19.31;60.07
64388;BME280;50709;52.648;4.764;2023-10-08T10:26:42;102722.09;;;19.21;57.45
64388;BME280;50709;52.648;4.764;2023-10-08T10:29:32;102718.66;;;18.75;57.67
64388;BME280;50709;52.648;4.764;2023-10-08T10:32:02;102723.81;;;19.28;59.30
64388;BME280;50709;52.648;4.764;2023-10-08T10:34:30;102726.28;;;19.65;58.16
64388;BME280;50709;52.648;4.764;2023-10-08T10:37:19;102734.47;;;19.17;59.13
64388;BME280;50709;52.648;4.764;2023-10-08T10:40:01;102735.22;;;19.45;59.75
64388;BME280;50709;52.648;4.764;2023-10-08T10:43:16;102727.44;;;19.05;58.88
64388;BME280;50709;52.648;4.764;2023-10-08T10:45:45;102727.38;;;19.25;58.31
64388;BME280;50709;52.648;4.764;2023-10-08T10:48:34;102714.13;;;19.24;58.91
64388;BME280;50709;52.648;4.764;2023-10-08T10:51:43;102712.53;;;18.58;59.30
64388;BME280;50709;52.648;4.764;2023-10-08T10:54:15;102723.00;;;19.12;60.44
64388;BME280;50709;52.648;4.764;2023-10-08T10:56:47;102723.94;;;18.80;60.33
64388;BME280;50709;52.648;4.764;2023-10-08T10:59:35;102722.22;;;18.70;60.26
64388;BME280;50709;52.648;4.764;2023-10-08T11:02:38;102714.28;;;18.62;59.75
64388;BME280;50709;52.648;4.764;2023-10-08T11:05:15;102718.66;;;18.89;60.62
64388;BME280;50709;52.648;4.764;2023-10-08T11:08:10;102719.63;;;18.46;60.53
64388;BME280;50709;52.648;4.764;2023-10-08T11:11:00;102713.41;;;18.60;61.12
64388;BME280;50709;52.648;4.764;2023-10-08T11:13:47;102716.91;;;18.74;59.99
64388;BME280;50709;52.648;4.764;2023-10-08T11:16:26;102704.50;;;19.01;60.34
64388;BME280;50709;52.648;4.764;2023-10-08T11:19:07;102713.28;;;19.15;59.99
64388;BME280;50709;52.648;4.764;2023-10-08T11:21:55;102709.81;;;18.98;59.89
64388;BME280;50709;52.648;4.764;2023-10-08T11:24:48;102703.66;;;18.74;60.42
64388;BME280;50709;52.648;4.764;2023-10-08T11:27:34;102696.59;;;18.95;59.38
64388;BME280;50709;52.648;4.764;2023-10-08T11:30:06;102678.97;;;18.69;59.73
64388;BME280;50709;52.648;4.764;2023-10-08T11:32:36;102680.75;;;18.76;59.10
64388;BME280;50709;52.648;4.764;2023-10-08T11:35:06;102681.56;;;19.05;59.60
64388;BME280;50709;52.648;4.764;2023-10-08T11:37:45;102685.06;;;19.05;59.84
64388;BME280;50709;52.648;4.764;2023-10-08T11:40:25;102670.81;;;19.36;59.15
64388;BME280;50709;52.648;4.764;2023-10-08T11:42:57;102667.47;;;18.87;59.19
64388;BME280;50709;52.648;4.764;2023-10-08T11:45:25;102661.88;;;19.47;58.67
64388;BME280;50709;52.648;4.764;2023-10-08T11:48:06;102665.44;;;19.49;58.08
64388;BME280;50709;52.648;4.764;2023-10-08T11:50:47;102659.34;;;19.33;58.34
64388;BME280;50709;52.648;4.764;2023-10-08T11:53:16;102645.97;;;19.54;57.38
64388;BME280;50709;52.648;4.764;2023-10-08T11:55:41;102646.75;;;19.65;57.99
64388;BME280;50709;52.648;4.764;2023-10-08T11:58:08;102636.41;;;19.29;58.17
64388;BME280;50709;52.648;4.764;2023-10-08T12:00:41;102633.50;;;19.65;57.50
64388;BME280;50709;52.648;4.764;2023-10-08T12:03:13;102626.31;;;19.87;57.93
64388;BME280;50709;52.648;4.764;2023-10-08T12:05:44;102627.19;;;19.88;56.92
64388;BME280;50709;52.648;4.764;2023-10-08T12:08:16;102611.72;;;19.27;56.44
64388;BME280;50709;52.648;4.764;2023-10-08T12:10:45;102587.78;;;19.38;57.13
64388;BME280;50709;52.648;4.764;2023-10-08T12:13:14;102597.47;;;19.39;58.90
64388;BME280;50709;52.648;4.764;2023-10-08T12:15:43;102606.88;;;19.88;58.78
64388;BME280;50709;52.648;4.764;2023-10-08T12:18:10;102603.75;;;19.29;58.94
64388;BME280;50709;52.648;4.764;2023-10-08T12:20:50;102608.81;;;19.61;57.76
64388;BME280;50709;52.648;4.764;2023-10-08T12:23:16;102608.16;;;19.27;57.54
64388;BME280;50709;52.648;4.764;2023-10-08T12:25:55;102588.38;;;19.74;57.12
64388;BME280;50709;52.648;4.764;2023-10-08T12:28:25;102592.78;;;19.75;58.30
64388;BME280;50709;52.648;4.764;2023-10-08T12:31:12;102592.97;;;19.54;58.24
64388;BME280;50709;52.648;4.764;2023-10-08T12:33:38;102569.81;;;19.80;58.61
64388;BME280;50709;52.648;4.764;2023-10-08T12:36:05;102582.22;;;19.69;57.62
64388;BME280;50709;52.648;4.764;2023-10-08T12:38:36;102613.34;;;19.45;58.40
64388;BME280;50709;52.648;4.764;2023-10-08T12:41:02;102595.50;;;19.66;57.29
64388;BME280;50709;52.648;4.764;2023-10-08T12:43:40;102611.94;;;20.13;56.55
64388;BME280;50709;52.648;4.764;2023-10-08T12:46:18;102602.06;;;20.27;56.15
64388;BME280;50709;52.648;4.764;2023-10-08T12:48:46;102605.63;;;20.26;57.29
64388;BME280;50709;52.648;4.764;2023-10-08T12:51:18;102611.19;;;19.97;57.86
64388;BME280;50709;52.648;4.764;2023-10-08T12:53:43;102608.19;;;20.34;57.04
64388;BME280;50709;52.648;4.764;2023-10-08T12:56:16;102599.13;;;20.54;56.14
64388;BME280;50709;52.648;4.764;2023-10-08T12:58:42;102588.63;;;20.43;55.81
64388;BME280;50709;52.648;4.764;2023-10-08T13:01:14;102612.13;;;20.78;56.11
64388;BME280;50709;52.648;4.764;2023-10-08T13:03:42;102613.03;;;20.77;55.82
64388;BME280;50709;52.648;4.764;2023-10-08T13:06:13;102606.97;;;20.63;56.18
64388;BME280;50709;52.648;4.764;2023-10-08T13:08:52;102616.81;;;20.55;55.11
64388;BME280;50709;52.648;4.764;2023-10-08T13:11:19;102611.66;;;20.38;55.85
64388;BME280;50709;52.648;4.764;2023-10-08T13:13:57;102614.16;;;20.53;56.39
64388;BME280;50709;52.648;4.764;2023-10-08T13:16:24;102621.13;;;20.65;56.19
64388;BME280;50709;52.648;4.764;2023-10-08T13:18:51;102605.69;;;20.96;56.55
64388;BME280;50709;52.648;4.764;2023-10-08T13:21:17;102609.66;;;20.60;55.49
64388;BME280;50709;52.648;4.764;2023-10-08T13:23:47;102599.13;;;20.54;57.09
64388;BME280;50709;52.648;4.764;2023-10-08T13:26:14;102594.88;;;20.39;55.66
64388;BME280;50709;52.648;4.764;2023-10-08T13:28:43;102575.47;;;20.32;56.79
64388;BME280;50709;52.648;4.764;2023-10-08T13:31:09;102555.16;;;20.29;56.56
64388;BME280;50709;52.648;4.764;2023-10-08T13:33:39;102585.09;;;20.42;56.55
64388;BME280;50709;52.648;4.764;2023-10-08T13:36:07;102568.28;;;20.45;56.59